createdAt,value
2022-12-13T00:18:45.189Z,10.56
2022-12-13T00:33:40.112Z,11.87
2022-12-13T00:48:40.512Z,12.45
2022-12-13T01:03:40.698Z,19.94
2022-12-13T01:18:40.681Z,13.62
2022-12-13T01:33:40.026Z,9.64
2022-12-13T02:03:40.267Z,4.49
2022-12-13T02:33:39.961Z,3.87
2022-12-13T02:48:40.392Z,3.8
2022-12-13T03:03:39.911Z,3.42
2022-12-13T03:18:40.150Z,3.28
2022-12-13T03:33:40.299Z,2.94
2022-12-13T04:03:40.631Z,3.09
2022-12-13T04:18:40.087Z,2.36
2022-12-13T04:48:40.368Z,4.23
2022-12-13T05:03:40.675Z,8.04
2022-12-13T05:18:40.213Z,17.26
2022-12-13T05:48:40.035Z,34.58
2022-12-13T06:03:40.651Z,25.51
2022-12-13T06:18:39.913Z,18.53
2022-12-13T06:33:40.729Z,29.37
2022-12-13T06:48:41.624Z,23.56
2022-12-13T07:03:39.996Z,21.01
2022-12-13T07:18:40.639Z,21.89
2022-12-13T07:33:40.956Z,51.35
2022-12-13T07:48:40.432Z,33.1
2022-12-13T08:03:40.034Z,30.09
2022-12-13T08:18:42.398Z,21.5
2022-12-13T08:33:40.484Z,15.09
2022-12-13T08:48:43.849Z,17.09
2022-12-13T09:03:40.252Z,20.25
2022-12-13T09:18:40.190Z,58.34
2022-12-13T09:33:41.043Z,40.72
2022-12-13T09:48:40.469Z,35.33
2022-12-13T10:03:40.442Z,26.4
2022-12-13T10:18:40.583Z,25.75
2022-12-13T10:33:39.827Z,26.1
2022-12-13T10:48:40.171Z,34.86
2022-12-13T11:03:39.834Z,20.11
2022-12-13T11:18:40.499Z,11.21
2022-12-13T11:33:47.527Z,11.29
2022-12-13T12:33:40.474Z,8.44
2022-12-13T12:48:53.651Z,13.45
2022-12-13T13:18:40.608Z,25.68
2022-12-13T13:33:40.615Z,8.39
2022-12-13T13:48:40.552Z,11.63
2022-12-13T14:03:40.164Z,9.26
2022-12-13T14:18:40.550Z,27.82
2022-12-13T14:34:06.906Z,29.76
2022-12-13T14:48:40.774Z,24.83
2022-12-13T15:03:40.162Z,45.41
2022-12-13T15:18:40.311Z,33.33
2022-12-13T15:48:40.259Z,43.47
2022-12-13T16:03:40.669Z,30.47
2022-12-13T16:18:40.488Z,13.92
2022-12-13T16:33:40.596Z,26.93
2022-12-13T17:03:42.088Z,36.79
2022-12-13T18:18:40.653Z,39.7
2022-12-13T19:03:40.488Z,24.87
2022-12-13T19:18:40.182Z,27.07
2022-12-13T19:33:40.188Z,15.73
2022-12-13T19:48:39.935Z,17.92
2022-12-13T20:03:41.121Z,40.12
2022-12-13T21:18:40.630Z,32.87
2022-12-13T22:03:39.997Z,14.89
2022-12-13T22:33:45.173Z,11.99
2022-12-13T22:48:40.272Z,13.9
2022-12-13T23:18:39.997Z,7.7
2022-12-13T23:33:40.279Z,9.41
